Hayland, Nebraska
Current Conditions -  °F | °C
As of 2:20 AM on Sunday 23 Nov 2014 (Local Time) from KHSI Reporting Station
Overcast Overcast  
Wind Chill: 53°   Ceiling: 2900
Heat Index: 53°   Visibility: 10mi
Dew Point: 48°   Wind: 6mph
Humidity: 83%   Direction: 180°S
Pressure: 29.48"   Gusts: NA
Location:  40.5679°N, 98.5535°W
Report Text: KHSI 230820Z AUTO 18005KT 10SM BKN029 OVC033 12/09 A2948 RMK AO2 T01170089
Loading
Personal Weather Stations






























Interactive Weather Map New forecast layout! Learn more

10-Day Weather Forecast

Advertisements
Track Severe Weather on mobile